Flight Track Log - Related Links

Times and Time Zones

All times are in EST time to prevent confusion due to time zone crossing. See the ASA125 flight status page for this flight to view local times or setup timezone preferences in your user account.

Time Position Orientation Groundspeed Altitude Reporting Facility
EST Latitude Longitude Course Direction KTS MPH feet Rate Location/Type
Sun 02:13:40 AM 47.4258 -122.3089 178° South 161 185 1,900  Level Seattle Center
Sun 02:13:50 AM 47.4189 -122.3086 178° South 166 191 2,300 2,197 Climbing Seattle Center
Sun 02:14:51 AM 47.3631 -122.3097 181° South 197 227 4,500 2,380 Climbing Seattle Center
Sun 02:15:51 AM 47.3156 -122.3633 217° Southwest 242 278 7,100 3,000 Climbing Seattle Center
Sun 02:16:51 AM 47.3178 -122.4658 272° West 261 300 10,500 2,450 Climbing Seattle Center
Sun 02:17:51 AM 47.3689 -122.5592 309° West 307 353 12,000 1,686 Climbing Seattle Center
Sun 02:18:52 AM 47.4436 -122.6564 319° Northwest 358 412 13,900 2,231 Climbing Seattle Center
Sun 02:19:52 AM 47.5208 -122.7569 319° Northwest 369 425 16,500 2,250 Climbing Seattle Center
Sun 02:20:52 AM 47.5911 -122.8489 319° Northwest 378 435 18,400 2,600 Climbing Seattle Center
Sun 02:21:52 AM 47.6650 -122.9644 314° West 382 440 21,700 2,876 Climbing Seattle Center
Sun 02:22:53 AM 47.7172 -123.0878 302° West 355 409 24,200 2,132 Climbing Seattle Center
Sun 02:23:53 AM 47.7689 -123.2131 302° West 357 411 26,000 1,400 Climbing Seattle Center
Sun 02:24:53 AM 47.8267 -123.3492 302° West 384 442 27,000 1,266 Climbing Seattle Center
Sun 02:25:42 AM 47.8667 -123.4833 294° West 400 460 28,300 1,651 Climbing Vancouver Center
Sun 02:26:42 AM 47.9667 -123.5833 326° Northwest 440 506 30,000 1,750 Climbing Vancouver Center
Sun 02:27:42 AM 48.0667 -123.6833 326° Northwest 440 506 31,800 1,900 Climbing Vancouver Center
Sun 02:28:42 AM 48.1667 -123.7667 331° Northwest 430 495 33,800 1,850 Climbing Vancouver Center
Sun 02:29:42 AM 48.2667 -123.8667 326° Northwest 420 483 35,500 1,300 Climbing Vancouver Center
Sun 02:30:42 AM 48.3667 -123.9833 322° Northwest 410 472 36,400 800 Climbing Vancouver Center
Sun 02:31:42 AM 48.4667 -124.0500 336° Northwest 420 483 37,100 800 Climbing Vancouver Center
Sun 02:32:42 AM 48.5667 -124.1500 327° Northwest 420 483 38,000 450 Climbing Vancouver Center
Sun 02:33:42 AM 48.6500 -124.2500 322° Northwest 420 483 38,000  Level Vancouver Center
Sun 02:34:42 AM 48.7500 -124.3500 327° Northwest 420 483 38,000  Level Vancouver Center
Sun 02:35:42 AM 48.8500 -124.4667 323° Northwest 420 483 38,000  Level Vancouver Center
Sun 02:36:42 AM 48.9500 -124.5667 327° Northwest 420 483 38,000  Level Vancouver Center
Sun 02:37:42 AM 49.0500 -124.6667 327° Northwest 420 483 38,000  Level Vancouver Center
Sun 02:38:42 AM 49.1333 -124.7500 327° Northwest 420 483 38,000  Level Vancouver Center
Sun 02:39:42 AM 49.2500 -124.8500 331° Northwest 430 495 38,000  Level Vancouver Center
Sun 02:40:42 AM 49.3333 -124.9500 322° Northwest 420 483 38,000  Level Vancouver Center
Sun 02:41:42 AM 49.4333 -125.0500 327° Northwest 420 483 38,000  Level Vancouver Center
Sun 02:42:42 AM 49.5333 -125.1667 323° Northwest 420 483 38,000  Level Vancouver Center
Sun 02:43:42 AM 49.6333 -125.2667 327° Northwest 410 472 38,000  Level Vancouver Center
Sun 02:44:42 AM 49.7167 -125.3500 327° Northwest 400 460 38,000  Level Vancouver Center
Sun 02:45:42 AM 49.8167 -125.4500 327° Northwest 390 449 38,000  Level Vancouver Center
Sun 02:46:42 AM 49.9000 -125.5333 327° Northwest 400 460 38,000  Level Vancouver Center
Sun 02:47:42 AM 50.0000 -125.6500 323° Northwest 400 460 38,000  Level Vancouver Center
Sun 02:48:42 AM 50.0833 -125.7500 322° Northwest 400 460 38,000  Level Vancouver Center
Sun 02:49:42 AM 50.1667 -125.8333 327° Northwest 410 472 38,000  Level Vancouver Center
Sun 02:50:42 AM 50.2667 -125.9333 327° Northwest 410 472 38,000  Level Vancouver Center
Sun 02:51:42 AM 50.3500 -126.0500 318° Northwest 410 472 38,000  Level Vancouver Center
Sun 02:52:42 AM 50.4500 -126.1667 323° Northwest 410 472 38,000  Level Vancouver Center
Sun 02:53:42 AM 50.5500 -126.2500 332° Northwest 420 483 38,000  Level Vancouver Center
Sun 02:54:42 AM 50.6500 -126.3500 328° Northwest 420 483 38,000  Level Vancouver Center
Sun 02:55:42 AM 50.7500 -126.4667 324° Northwest 430 495 38,000  Level Vancouver Center
Sun 02:56:42 AM 50.8500 -126.5833 324° Northwest 430 495 38,000  Level Vancouver Center
Sun 02:57:42 AM 50.9333 -126.6833 323° Northwest 430 495 38,000  Level Vancouver Center
Sun 02:58:42 AM 51.0333 -126.8000 324° Northwest 430 495 38,000  Level Vancouver Center
Sun 02:59:42 AM 51.1333 -126.9167 324° Northwest 440 506 38,000  Level Vancouver Center
Sun 03:00:42 AM 51.2333 -127.0333 324° Northwest 440 506 38,000  Level Vancouver Center
Sun 03:01:42 AM 51.3333 -127.1333 328° Northwest 440 506 38,000  Level Vancouver Center
Sun 03:02:42 AM 51.4333 -127.2500 324° Northwest 440 506 38,000  Level Vancouver Center
Sun 03:03:42 AM 51.5333 -127.3667 324° Northwest 440 506 38,000  Level Vancouver Center
Sun 03:04:42 AM 51.6167 -127.4833 319° Northwest 440 506 38,000  Level Vancouver Center
Sun 03:05:42 AM 51.7333 -127.6000 328° Northwest 440 506 38,000  Level Vancouver Center
Sun 03:06:42 AM 51.8333 -127.7167 324° Northwest 440 506 38,000  Level Vancouver Center
Sun 03:07:42 AM 51.9333 -127.8333 324° Northwest 440 506 38,000  Level Vancouver Center
Sun 03:08:42 AM 52.0167 -127.9500 319° Northwest 440 506 38,000  Level Vancouver Center
Sun 03:09:42 AM 52.1333 -128.0667 328° Northwest 440 506 38,000  Level Vancouver Center
Sun 03:10:42 AM 52.2333 -128.1833 324° Northwest 440 506 38,000  Level Vancouver Center
Sun 03:11:42 AM 52.3333 -128.3000 325° Northwest 440 506 38,000  Level Vancouver Center
Sun 03:12:42 AM 52.4333 -128.4000 329° Northwest 450 518 38,000  Level Vancouver Center
Sun 03:13:42 AM 52.5333 -128.5167 325° Northwest 440 506 38,000  Level Vancouver Center
Sun 03:14:42 AM 52.6333 -128.6333 325° Northwest 430 495 38,000  Level Vancouver Center
Sun 03:15:42 AM 52.7500 -128.7333 333° Northwest 440 506 38,000  Level Vancouver Center
Sun 03:16:42 AM 52.8167 -128.8500 313° West 430 495 38,000  Level Vancouver Center
Sun 03:17:42 AM 52.9333 -128.9500 333° Northwest 420 483 38,000  Level Vancouver Center
Sun 03:18:42 AM 53.0333 -129.0667 325° Northwest 430 495 38,000  Level Vancouver Center
Sun 03:19:42 AM 53.1333 -129.1667 329° Northwest 430 495 38,000  Level Vancouver Center
Sun 03:20:42 AM 53.2167 -129.3000 316° Northwest 420 483 38,000  Level Vancouver Center
Sun 03:21:42 AM 53.3167 -129.3833 334° Northwest 430 495 38,000  Level Vancouver Center
Sun 03:22:42 AM 53.4167 -129.5167 322° Northwest 430 495 38,000  Level Vancouver Center
Sun 03:23:42 AM 53.5167 -129.6333 325° Northwest 430 495 38,000  Level Vancouver Center
Sun 03:24:42 AM 53.6167 -129.7333 329° Northwest 420 483 38,000  Level Vancouver Center
Sun 03:25:42 AM 53.7167 -129.8333 329° Northwest 430 495 38,000  Level Vancouver Center
Sun 03:26:42 AM 53.8000 -129.9667 317° Northwest 440 506 38,000  Level Vancouver Center
Sun 03:27:42 AM 53.9000 -130.0833 326° Northwest 440 506 38,000  Level Vancouver Center
Sun 03:28:42 AM 54.0167 -130.2167 326° Northwest 440 506 38,000  Level Vancouver Center
Sun 03:29:42 AM 54.1000 -130.3167 325° Northwest 440 506 38,000  Level Vancouver Center
Sun 03:30:42 AM 54.2167 -130.4500 326° Northwest 440 506 38,000  Level Vancouver Center
Sun 03:31:42 AM 54.3167 -130.5500 330° Northwest 440 506 38,000  Level Vancouver Center
Sun 03:32:42 AM 54.4000 -130.6833 317° Northwest 430 495 38,000  Level Vancouver Center
Sun 03:33:42 AM 54.5000 -130.7833 330° Northwest 420 483 38,000  Level Vancouver Center
Sun 03:34:42 AM 54.6000 -130.9167 322° Northwest 420 483 38,000  Level Vancouver Center
Sun 03:35:42 AM 54.6833 -131.0167 325° Northwest 420 483 38,000  Level Vancouver Center
Sun 03:36:42 AM 54.7833 -131.1500 322° Northwest 420 483 38,000  Level Vancouver Center
Sun 03:37:42 AM 54.8667 -131.2500 325° Northwest 420 483 38,000  Level Vancouver Center
Sun 03:38:42 AM 54.9667 -131.3833 323° Northwest 420 483 38,000  Level Vancouver Center
Sun 03:39:42 AM 55.0833 -131.5000 330° Northwest 420 483 38,000  Level Vancouver Center
Sun 03:40:42 AM 55.1667 -131.6333 318° Northwest 430 495 38,000  Level Vancouver Center
Sun 03:41:42 AM 55.2667 -131.7333 330° Northwest 430 495 38,000  Level Vancouver Center
Sun 03:42:42 AM 55.3500 -131.8667 318° Northwest 420 483 38,000  Level Vancouver Center
Sun 03:43:42 AM 55.4500 -132.0167 320° Northwest 420 483 38,000  Level Vancouver Center
Sun 03:44:42 AM 55.5333 -132.1167 326° Northwest 420 483 38,000  Level Vancouver Center
Sun 03:45:42 AM 55.6333 -132.2333 327° Northwest 410 472 38,000  Level Vancouver Center
Sun 03:46:42 AM 55.7333 -132.3333 331° Northwest 410 472 38,000  Level Vancouver Center
Sun 03:47:42 AM 55.8333 -132.4500 327° Northwest 410 472 38,000  Level Vancouver Center
Sun 03:48:42 AM 55.9333 -132.5500 331° Northwest 410 472 38,000  Level Vancouver Center
Sun 03:49:42 AM 56.0167 -132.6667 322° Northwest 410 472 38,000  Level Vancouver Center
Sun 03:50:42 AM 56.1167 -132.7833 327° Northwest 400 460 38,000  Level Vancouver Center
Sun 03:51:42 AM 56.2000 -132.8833 326° Northwest 400 460 38,000  Level Vancouver Center
Sun 03:52:42 AM 56.3000 -133.0000 327° Northwest 400 460 38,000  Level Vancouver Center
Sun 03:53:42 AM 56.4000 -133.1167 327° Northwest 400 460 38,000  Level Vancouver Center
Sun 03:54:42 AM 56.4833 -133.2000 331° Northwest 400 460 38,000  Level Vancouver Center
Sun 03:55:42 AM 56.5667 -133.3167 322° Northwest 400 460 38,000  Level Vancouver Center
Sun 03:56:42 AM 56.6500 -133.4167 327° Northwest 400 460 38,000  Level Vancouver Center
Sun 03:57:42 AM 56.7500 -133.5333 327° Northwest 390 449 38,000  Level Vancouver Center
Sun 03:58:42 AM 56.8333 -133.6167 331° Northwest 400 460 38,000  Level Vancouver Center
Sun 03:59:42 AM 56.9500 -133.7500 328° Northwest 400 460 38,000  Level Vancouver Center
Sun 04:00:42 AM 57.0333 -133.8667 323° Northwest 400 460 38,000  Level Vancouver Center
Sun 04:01:42 AM 57.1167 -133.9667 327° Northwest 390 449 38,000  Level Vancouver Center
Sun 04:02:42 AM 57.2000 -134.0833 323° Northwest 390 449 38,000  Level Vancouver Center
Sun 04:03:42 AM 57.3000 -134.2000 328° Northwest 390 449 38,000  Level Vancouver Center
Sun 04:04:42 AM 57.4000 -134.3000 332° Northwest 390 449 38,000  Level Vancouver Center
Sun 04:05:42 AM 57.4833 -134.4167 323° Northwest 390 449 38,000  Level Vancouver Center
Sun 04:06:42 AM 57.5667 -134.5333 323° Northwest 390 449 38,000  Level Vancouver Center
Sun 04:07:42 AM 57.6667 -134.6500 328° Northwest 400 460 38,000  Level Vancouver Center
Sun 04:08:42 AM 57.7500 -134.7667 323° Northwest 400 460 38,000  Level Vancouver Center
Sun 04:09:42 AM 57.8500 -134.9000 325° Northwest 400 460 38,000  Level Vancouver Center
Sun 04:10:42 AM 57.9333 -134.9833 332° Northwest 400 460 38,000  Level Vancouver Center
Sun 04:11:42 AM 58.0333 -135.1167 325° Northwest 400 460 38,000  Level Vancouver Center
Sun 04:12:42 AM 58.1167 -135.2333 324° Northwest 400 460 38,000  Level Vancouver Center
Sun 04:14:04 AM 58.2333 -135.3167 339° North 380 437 38,000  Level Anchorage Center
Sun 04:15:04 AM 58.3333 -135.4167 332° Northwest 380 437 38,000 200 Level Anchorage Center
Sun 04:16:04 AM 58.4167 -135.5167 328° Northwest 380 437 38,400 500 Climbing Anchorage Center
Sun 04:17:04 AM 58.5167 -135.6167 332° Northwest 400 460 39,000 595 Climbing Anchorage Center
Sun 04:18:05 AM 58.6167 -135.7167 333° Northwest 400 460 39,600 496 Climbing Anchorage Center
Sun 04:19:05 AM 58.7000 -135.8167 328° Northwest 400 460 40,000 200 Climbing Anchorage Center
Sun 04:20:05 AM 58.8000 -135.9333 329° Northwest 400 460 40,000  Level Anchorage Center
Sun 04:21:05 AM 58.9000 -136.0333 333° Northwest 410 472 40,000  Level Anchorage Center
Sun 04:22:05 AM 59.0000 -136.1500 329° Northwest 410 472 40,000  Level Anchorage Center
Sun 04:23:05 AM 59.1000 -136.2667 329° Northwest 410 472 40,000  Level Anchorage Center
Sun 04:24:06 AM 59.2000 -136.3833 329° Northwest 410 472 40,000  Level Anchorage Center
Sun 04:25:06 AM 59.3000 -136.4833 333° Northwest 410 472 40,000  Level Anchorage Center
Sun 04:26:06 AM 59.4000 -136.6000 329° Northwest 400 460 40,000  Level Anchorage Center
Sun 04:27:06 AM 59.5000 -136.7167 329° Northwest 400 460 40,000  Level Anchorage Center
Sun 04:28:06 AM 59.5833 -136.8167 329° Northwest 400 460 40,000  Level Anchorage Center
Sun 04:29:06 AM 59.6833 -136.9333 330° Northwest 390 449 40,000  Level Anchorage Center
Sun 04:30:06 AM 59.7833 -137.0500 330° Northwest 390 449 40,000  Level Anchorage Center
Sun 04:31:06 AM 59.8667 -137.1500 329° Northwest 380 437 40,000  Level Anchorage Center
Sun 04:32:06 AM 59.9667 -137.2667 330° Northwest 380 437 40,000  Level Anchorage Center
Sun 04:33:06 AM 60.0500 -137.3667 329° Northwest 390 449 40,000  Level Anchorage Center
Sun 04:34:06 AM 60.1500 -137.4833 330° Northwest 370 426 40,000  Level Anchorage Center
Sun 04:35:07 AM 60.2333 -137.5833 329° Northwest 380 437 40,000  Level Anchorage Center
Sun 04:36:07 AM 60.3167 -137.7000 325° Northwest 370 426 40,000  Level Anchorage Center
Sun 04:37:07 AM 60.4167 -137.8000 334° Northwest 380 437 40,000  Level Anchorage Center
Sun 04:38:07 AM 60.5000 -137.9167 325° Northwest 390 449 40,000  Level Anchorage Center
Sun 04:39:07 AM 60.6000 -138.0333 330° Northwest 380 437 40,000  Level Anchorage Center
Sun 04:40:07 AM 60.6833 -138.1500 326° Northwest 380 437 40,000  Level Anchorage Center
Sun 04:41:08 AM 60.7667 -138.2500 330° Northwest 370 426 40,000  Level Anchorage Center
Sun 04:42:08 AM 60.8667 -138.3667 330° Northwest 380 437 40,000  Level Anchorage Center
Sun 04:43:08 AM 60.9500 -138.4833 326° Northwest 390 449 40,000  Level Anchorage Center
Sun 04:44:08 AM 61.0500 -138.6000 331° Northwest 390 449 40,000  Level Anchorage Center
Sun 04:45:08 AM 61.1333 -138.7167 326° Northwest 380 437 40,000  Level Anchorage Center
Sun 04:46:08 AM 61.2167 -138.8333 326° Northwest 370 426 40,000  Level Anchorage Center
Sun 04:47:08 AM 61.3000 -138.9500 326° Northwest 380 437 40,000  Level Anchorage Center
Sun 04:48:08 AM 61.3833 -139.0833 323° Northwest 370 426 40,000  Level Anchorage Center
Sun 04:49:08 AM 61.4833 -139.2333 324° Northwest 400 460 40,000  Level Anchorage Center
Sun 04:50:09 AM 61.5500 -139.3667 316° Northwest 390 449 40,000  Level Anchorage Center
Sun 04:52:00 AM 61.7059 -139.6353 321° Northwest  Level FlightAware Approximate
Sun 04:53:19 AM 61.8167 -139.8333 321° Northwest 400 460 40,000  Level Anchorage Center
Sun 04:56:00 AM 61.9586 -140.0824 321° Northwest  Level FlightAware Approximate
Sun 05:03:00 AM 62.5434 -141.1453 319° Northwest  Level FlightAware Approximate
Sun 05:04:00 AM 62.6256 -141.3022 319° Northwest  Level FlightAware Approximate
Sun 05:04:20 AM 62.6500 -141.3167 308° West 340 391 34,000  Level Anchorage Center
Sun 05:05:00 AM 62.7077 -141.4599 319° Northwest  Level FlightAware Approximate
Sun 05:05:20 AM 62.7167 -141.4500 318° Northwest 330 380 34,000  Level Anchorage Center
Sun 05:06:00 AM 62.7896 -141.6185 318° Northwest  Level FlightAware Approximate
Sun 05:06:20 AM 62.7833 -141.6000 314° West 340 391 34,000  Level Anchorage Center
Sun 05:07:00 AM 62.8712 -141.7780 318° Northwest  Level FlightAware Approximate
Sun 05:07:21 AM 62.8500 -141.7333 318° Northwest 330 380 34,000  Level Anchorage Center
Sun 05:08:00 AM 62.9493 -141.9453 308° West  Level FlightAware Approximate
Sun 05:08:21 AM 62.9167 -141.8667 318° Northwest 320 368 34,000  Level Anchorage Center
Sun 05:09:00 AM 63.0163 -142.1358 308° West  Level FlightAware Approximate
Sun 05:09:21 AM 62.9833 -142.0167 314° West 330 380 34,000  Level Anchorage Center
Sun 05:10:21 AM 63.0333 -142.1833 304° West 330 380 34,000 -250 Level Anchorage Center
Sun 05:11:21 AM 63.1000 -142.3333 315° West 330 380 33,500 -900 Descending Anchorage Center
Sun 05:12:21 AM 63.1500 -142.5000 304° West 330 380 32,200 -1,339 Descending Anchorage Center
Sun 05:13:22 AM 63.2000 -142.6667 304° West 340 391 30,800 -1,091 Descending Anchorage Center
Sun 05:14:22 AM 63.2667 -142.8500 309° West 360 414 30,000 -400 Descending Anchorage Center
Sun 05:15:22 AM 63.3167 -143.0167 304° West 350 403 30,000  Level Anchorage Center
Sun 05:16:22 AM 63.3833 -143.2000 309° West 350 403 30,000  Level Anchorage Center
Sun 05:17:22 AM 63.4333 -143.3833 301° West 350 403 30,000  Level Anchorage Center
Sun 05:18:22 AM 63.4833 -143.5500 304° West 340 391 30,000  Level Anchorage Center
Sun 05:19:22 AM 63.5500 -143.7167 312° West 340 391 30,000  Level Anchorage Center
Sun 05:20:22 AM 63.6000 -143.9000 302° West 340 391 30,000  Level Anchorage Center
Sun 05:21:22 AM 63.6500 -144.0667 304° West 340 391 30,000  Level Anchorage Center
Sun 05:22:22 AM 63.7167 -144.2500 309° West 350 403 30,000  Level Anchorage Center
Sun 05:23:23 AM 63.7667 -144.4167 304° West 340 391 30,000  Level Anchorage Center
Sun 05:24:23 AM 63.8167 -144.6000 302° West 340 391 30,000  Level Anchorage Center
Sun 05:25:23 AM 63.8833 -144.7833 310° West 340 391 30,000  Level Anchorage Center
Sun 05:26:23 AM 63.9333 -144.9833 300° West 340 391 30,000 -300 Level Anchorage Center
Sun 05:27:23 AM 63.9833 -145.1500 304° West 340 391 29,400 -650 Descending Anchorage Center
Sun 05:28:23 AM 64.0500 -145.3333 310° West 340 391 28,700 -700 Descending Anchorage Center
Sun 05:29:23 AM 64.1000 -145.5167 302° West 350 403 28,000 -744 Descending Anchorage Center
Sun 05:30:24 AM 64.1500 -145.7000 302° West 340 391 27,200 -1,339 Descending Anchorage Center
Sun 05:31:24 AM 64.2000 -145.8667 305° West 320 368 25,300 -1,950 Descending Anchorage Center
Sun 05:32:24 AM 64.2500 -146.0333 305° West 310 357 23,300 -2,000 Descending Anchorage Center
Sun 05:34:00 AM 64.3458 -146.3632 303° West  Level FlightAware Approximate
Sun 05:41:00 AM 64.6084 -147.8875 253° West  Level FlightAware Approximate
Sun 05:42:00 AM 64.6429 -147.9325 16° North  Level FlightAware Approximate
Sun 05:43:00 AM 64.7484 -147.8840 10° North  Level FlightAware Approximate
Sun 05:44:00 AM 64.8000 -147.8500 16° North  Level FlightAware Approximate
Sun 05:45:00 AM 64.8151 -147.8564 16° North  Level Estimated
Sun 05:46:00 AM 64.8151 -147.8564 16° North  Level Estimated
Sun 05:47:00 AM 64.8151 -147.8564 16° North  Level Estimated
Sun 05:48:00 AM 64.8151 -147.8564 16° North  Level Estimated
Sun 05:49:00 AM 64.8151 -147.8564 16° North  Level Estimated
Sun 05:50:00 AM 64.8151 -147.8564 16° North  Level Estimated
Sun 05:51:00 AM 64.8151 -147.8564 16° North  Level Estimated
Sun 05:52:00 AM 64.8151 -147.8564 16° North  Level Estimated
Sun 05:53:00 AM 64.8151 -147.8564 16° North  Level Estimated
Sun 05:54:00 AM 64.8151 -147.8564 16° North  Level Estimated

Login

Don't have an account? Register now (free) for customized features, flight alerts, and more!